sensor_id;sensor_type;location;lat;lon;timestamp;P1;durP1;ratioP1;P2;durP2;ratioP2
7529;SDS011;3806;52.270;10.544;2022-11-15T00:00:45;12.55;;;6.70;;
7529;SDS011;3806;52.270;10.544;2022-11-15T00:03:13;11.60;;;7.05;;
7529;SDS011;3806;52.270;10.544;2022-11-15T00:05:42;14.35;;;6.90;;
7529;SDS011;3806;52.270;10.544;2022-11-15T00:08:08;15.77;;;7.72;;
7529;SDS011;3806;52.270;10.544;2022-11-15T00:10:34;10.10;;;6.32;;
7529;SDS011;3806;52.270;10.544;2022-11-15T00:13:04;9.88;;;6.47;;
7529;SDS011;3806;52.270;10.544;2022-11-15T00:15:30;13.63;;;6.38;;
7529;SDS011;3806;52.270;10.544;2022-11-15T00:17:56;11.30;;;7.20;;
7529;SDS011;3806;52.270;10.544;2022-11-15T00:20:21;13.20;;;7.78;;
7529;SDS011;3806;52.270;10.544;2022-11-15T00:22:47;11.32;;;6.10;;
7529;SDS011;3806;52.270;10.544;2022-11-15T00:25:13;13.13;;;7.07;;
7529;SDS011;3806;52.270;10.544;2022-11-15T00:27:38;11.90;;;6.43;;
7529;SDS011;3806;52.270;10.544;2022-11-15T00:30:04;11.48;;;7.53;;
7529;SDS011;3806;52.270;10.544;2022-11-15T00:32:33;11.68;;;6.43;;
7529;SDS011;3806;52.270;10.544;2022-11-15T00:34:59;9.23;;;6.18;;
7529;SDS011;3806;52.270;10.544;2022-11-15T00:37:24;11.77;;;7.00;;
7529;SDS011;3806;52.270;10.544;2022-11-15T00:39:50;11.57;;;6.35;;
7529;SDS011;3806;52.270;10.544;2022-11-15T00:42:15;8.68;;;5.28;;
7529;SDS011;3806;52.270;10.544;2022-11-15T00:44:41;9.80;;;6.93;;
7529;SDS011;3806;52.270;10.544;2022-11-15T00:47:06;9.43;;;5.45;;
7529;SDS011;3806;52.270;10.544;2022-11-15T00:49:32;9.95;;;6.47;;
7529;SDS011;3806;52.270;10.544;2022-11-15T00:51:57;11.95;;;6.40;;
7529;SDS011;3806;52.270;10.544;2022-11-15T00:54:23;14.07;;;7.95;;
7529;SDS011;3806;52.270;10.544;2022-11-15T00:56:48;12.98;;;6.63;;
7529;SDS011;3806;52.270;10.544;2022-11-15T00:59:14;13.95;;;6.80;;
7529;SDS011;3806;52.270;10.544;2022-11-15T01:01:40;11.77;;;6.38;;
7529;SDS011;3806;52.270;10.544;2022-11-15T01:04:05;10.82;;;6.47;;
7529;SDS011;3806;52.270;10.544;2022-11-15T01:06:31;12.90;;;5.82;;
7529;SDS011;3806;52.270;10.544;2022-11-15T01:08:56;11.27;;;6.55;;
7529;SDS011;3806;52.270;10.544;2022-11-15T01:11:22;13.80;;;7.35;;
7529;SDS011;3806;52.270;10.544;2022-11-15T01:13:47;12.32;;;7.28;;
7529;SDS011;3806;52.270;10.544;2022-11-15T01:16:14;12.23;;;6.70;;
7529;SDS011;3806;52.270;10.544;2022-11-15T01:18:42;11.23;;;5.75;;
7529;SDS011;3806;52.270;10.544;2022-11-15T01:21:09;11.85;;;6.13;;
7529;SDS011;3806;52.270;10.544;2022-11-15T01:23:36;11.32;;;6.43;;
7529;SDS011;3806;52.270;10.544;2022-11-15T01:26:02;10.73;;;6.32;;
7529;SDS011;3806;52.270;10.544;2022-11-15T01:28:33;14.07;;;6.18;;
7529;SDS011;3806;52.270;10.544;2022-11-15T01:31:01;11.77;;;6.43;;
7529;SDS011;3806;52.270;10.544;2022-11-15T01:33:28;15.82;;;7.45;;
7529;SDS011;3806;52.270;10.544;2022-11-15T01:35:54;10.98;;;6.22;;
7529;SDS011;3806;52.270;10.544;2022-11-15T01:38:20;15.20;;;7.65;;
7529;SDS011;3806;52.270;10.544;2022-11-15T01:40:46;9.63;;;6.72;;
7529;SDS011;3806;52.270;10.544;2022-11-15T01:43:18;12.43;;;6.60;;
7529;SDS011;3806;52.270;10.544;2022-11-15T01:45:45;11.13;;;7.47;;
7529;SDS011;3806;52.270;10.544;2022-11-15T01:48:15;12.57;;;7.53;;
7529;SDS011;3806;52.270;10.544;2022-11-15T01:50:40;10.77;;;6.95;;
7529;SDS011;3806;52.270;10.544;2022-11-15T01:53:06;13.10;;;7.72;;
7529;SDS011;3806;52.270;10.544;2022-11-15T01:55:32;13.63;;;6.55;;
7529;SDS011;3806;52.270;10.544;2022-11-15T01:57:59;10.32;;;6.45;;
7529;SDS011;3806;52.270;10.544;2022-11-15T02:00:28;10.15;;;6.70;;
7529;SDS011;3806;52.270;10.544;2022-11-15T02:02:54;12.25;;;7.32;;
7529;SDS011;3806;52.270;10.544;2022-11-15T02:05:20;10.70;;;6.45;;
7529;SDS011;3806;52.270;10.544;2022-11-15T02:07:45;11.23;;;6.85;;
7529;SDS011;3806;52.270;10.544;2022-11-15T02:10:16;12.23;;;6.95;;
7529;SDS011;3806;52.270;10.544;2022-11-15T02:12:44;11.05;;;6.40;;
7529;SDS011;3806;52.270;10.544;2022-11-15T02:15:11;11.65;;;6.57;;
7529;SDS011;3806;52.270;10.544;2022-11-15T02:26:13;10.43;;;6.15;;
7529;SDS011;3806;52.270;10.544;2022-11-15T02:34:43;9.23;;;5.90;;
7529;SDS011;3806;52.270;10.544;2022-11-15T02:40:13;10.93;;;5.97;;
7529;SDS011;3806;52.270;10.544;2022-11-15T02:42:45;13.63;;;6.45;;
7529;SDS011;3806;52.270;10.544;2022-11-15T02:45:37;10.27;;;5.68;;
7529;SDS011;3806;52.270;10.544;2022-11-15T02:48:06;11.43;;;6.53;;
7529;SDS011;3806;52.270;10.544;2022-11-15T02:50:34;9.88;;;5.95;;
7529;SDS011;3806;52.270;10.544;2022-11-15T02:52:59;11.88;;;6.60;;
7529;SDS011;3806;52.270;10.544;2022-11-15T02:55:29;11.05;;;5.53;;
7529;SDS011;3806;52.270;10.544;2022-11-15T03:01:12;11.20;;;5.90;;
7529;SDS011;3806;52.270;10.544;2022-11-15T03:09:42;9.65;;;6.05;;
7529;SDS011;3806;52.270;10.544;2022-11-15T03:13:12;11.50;;;6.40;;
7529;SDS011;3806;52.270;10.544;2022-11-15T03:15:18;10.85;;;6.00;;
7529;SDS011;3806;52.270;10.544;2022-11-15T03:20:37;8.63;;;6.53;;
7529;SDS011;3806;52.270;10.544;2022-11-15T03:23:06;12.30;;;6.25;;
7529;SDS011;3806;52.270;10.544;2022-11-15T03:25:34;11.80;;;5.45;;
7529;SDS011;3806;52.270;10.544;2022-11-15T03:28:05;9.75;;;5.60;;
7529;SDS011;3806;52.270;10.544;2022-11-15T03:30:34;11.10;;;5.65;;
7529;SDS011;3806;52.270;10.544;2022-11-15T03:33:02;8.20;;;5.45;;
7529;SDS011;3806;52.270;10.544;2022-11-15T03:35:30;7.88;;;5.47;;
7529;SDS011;3806;52.270;10.544;2022-11-15T03:38:05;10.10;;;5.40;;
7529;SDS011;3806;52.270;10.544;2022-11-15T03:41:01;8.35;;;5.15;;
7529;SDS011;3806;52.270;10.544;2022-11-15T03:46:32;8.60;;;5.35;;
7529;SDS011;3806;52.270;10.544;2022-11-15T03:49:08;7.88;;;5.07;;
7529;SDS011;3806;52.270;10.544;2022-11-15T03:51:38;9.15;;;5.35;;
7529;SDS011;3806;52.270;10.544;2022-11-15T03:54:04;9.45;;;5.78;;
7529;SDS011;3806;52.270;10.544;2022-11-15T03:56:30;8.10;;;5.47;;
7529;SDS011;3806;52.270;10.544;2022-11-15T03:58:56;9.65;;;4.97;;
7529;SDS011;3806;52.270;10.544;2022-11-15T04:01:21;11.00;;;5.93;;
7529;SDS011;3806;52.270;10.544;2022-11-15T04:03:47;10.27;;;5.10;;
7529;SDS011;3806;52.270;10.544;2022-11-15T04:06:13;10.80;;;5.43;;
7529;SDS011;3806;52.270;10.544;2022-11-15T04:08:38;8.65;;;5.55;;
7529;SDS011;3806;52.270;10.544;2022-11-15T04:11:04;10.35;;;5.78;;
7529;SDS011;3806;52.270;10.544;2022-11-15T04:13:29;10.00;;;5.47;;
7529;SDS011;3806;52.270;10.544;2022-11-15T04:15:55;8.40;;;5.18;;
7529;SDS011;3806;52.270;10.544;2022-11-15T04:18:20;8.32;;;5.22;;
7529;SDS011;3806;52.270;10.544;2022-11-15T04:20:46;9.35;;;5.65;;
7529;SDS011;3806;52.270;10.544;2022-11-15T04:23:30;11.50;;;5.38;;
7529;SDS011;3806;52.270;10.544;2022-11-15T04:26:16;8.40;;;5.10;;
7529;SDS011;3806;52.270;10.544;2022-11-15T04:28:46;9.38;;;5.07;;
7529;SDS011;3806;52.270;10.544;2022-11-15T04:31:31;7.10;;;4.97;;
7529;SDS011;3806;52.270;10.544;2022-11-15T04:33:56;12.60;;;5.72;;
7529;SDS011;3806;52.270;10.544;2022-11-15T04:36:22;8.85;;;5.47;;
7529;SDS011;3806;52.270;10.544;2022-11-15T04:39:06;9.57;;;4.93;;
7529;SDS011;3806;52.270;10.544;2022-11-15T04:41:32;9.75;;;5.47;;
7529;SDS011;3806;52.270;10.544;2022-11-15T04:43:58;10.10;;;5.60;;
7529;SDS011;3806;52.270;10.544;2022-11-15T04:46:24;8.68;;;5.47;;
7529;SDS011;3806;52.270;10.544;2022-11-15T04:48:50;12.57;;;5.57;;
7529;SDS011;3806;52.270;10.544;2022-11-15T04:51:16;10.25;;;5.95;;
7529;SDS011;3806;52.270;10.544;2022-11-15T04:53:41;10.93;;;5.68;;
7529;SDS011;3806;52.270;10.544;2022-11-15T04:56:07;12.52;;;5.65;;
7529;SDS011;3806;52.270;10.544;2022-11-15T04:58:33;10.68;;;5.90;;
7529;SDS011;3806;52.270;10.544;2022-11-15T05:01:06;8.07;;;5.43;;
7529;SDS011;3806;52.270;10.544;2022-11-15T05:03:35;11.32;;;5.47;;
7529;SDS011;3806;52.270;10.544;2022-11-15T05:06:20;9.20;;;5.50;;
7529;SDS011;3806;52.270;10.544;2022-11-15T05:08:45;10.52;;;5.60;;
7529;SDS011;3806;52.270;10.544;2022-11-15T05:11:11;9.82;;;6.13;;
7529;SDS011;3806;52.270;10.544;2022-11-15T05:13:37;10.85;;;6.00;;
7529;SDS011;3806;52.270;10.544;2022-11-15T05:16:02;12.25;;;6.25;;
7529;SDS011;3806;52.270;10.544;2022-11-15T05:18:28;8.93;;;5.18;;
7529;SDS011;3806;52.270;10.544;2022-11-15T05:20:54;9.43;;;5.72;;
7529;SDS011;3806;52.270;10.544;2022-11-15T05:23:20;9.80;;;6.18;;
7529;SDS011;3806;52.270;10.544;2022-11-15T05:25:45;10.18;;;5.80;;
7529;SDS011;3806;52.270;10.544;2022-11-15T05:28:11;7.97;;;5.32;;
7529;SDS011;3806;52.270;10.544;2022-11-15T05:30:37;11.65;;;5.97;;
7529;SDS011;3806;52.270;10.544;2022-11-15T05:33:02;8.45;;;5.10;;
7529;SDS011;3806;52.270;10.544;2022-11-15T05:35:34;11.52;;;5.68;;
7529;SDS011;3806;52.270;10.544;2022-11-15T05:40:30;11.47;;;6.37;;
7529;SDS011;3806;52.270;10.544;2022-11-15T05:42:57;12.60;;;6.75;;
7529;SDS011;3806;52.270;10.544;2022-11-15T05:45:25;11.95;;;6.20;;
7529;SDS011;3806;52.270;10.544;2022-11-15T05:47:51;14.02;;;6.18;;
7529;SDS011;3806;52.270;10.544;2022-11-15T05:50:18;8.68;;;5.45;;
7529;SDS011;3806;52.270;10.544;2022-11-15T05:52:44;12.25;;;5.75;;
7529;SDS011;3806;52.270;10.544;2022-11-15T05:55:11;13.52;;;6.50;;
7529;SDS011;3806;52.270;10.544;2022-11-15T05:57:37;13.05;;;6.38;;
7529;SDS011;3806;52.270;10.544;2022-11-15T06:00:03;10.15;;;6.03;;
7529;SDS011;3806;52.270;10.544;2022-11-15T06:02:29;9.27;;;5.88;;
7529;SDS011;3806;52.270;10.544;2022-11-15T06:04:55;9.55;;;5.47;;
7529;SDS011;3806;52.270;10.544;2022-11-15T06:07:20;9.07;;;5.93;;
7529;SDS011;3806;52.270;10.544;2022-11-15T06:09:46;10.40;;;6.45;;
7529;SDS011;3806;52.270;10.544;2022-11-15T06:12:12;11.32;;;6.28;;
7529;SDS011;3806;52.270;10.544;2022-11-15T06:14:38;8.50;;;5.32;;
7529;SDS011;3806;52.270;10.544;2022-11-15T06:17:03;9.57;;;5.22;;
7529;SDS011;3806;52.270;10.544;2022-11-15T06:19:29;8.25;;;5.57;;
7529;SDS011;3806;52.270;10.544;2022-11-15T06:21:58;12.02;;;5.95;;
7529;SDS011;3806;52.270;10.544;2022-11-15T06:24:26;10.43;;;5.78;;
7529;SDS011;3806;52.270;10.544;2022-11-15T06:26:52;10.40;;;5.38;;
7529;SDS011;3806;52.270;10.544;2022-11-15T06:29:18;9.98;;;5.28;;
7529;SDS011;3806;52.270;10.544;2022-11-15T06:31:43;9.55;;;4.72;;
7529;SDS011;3806;52.270;10.544;2022-11-15T06:34:09;9.70;;;5.75;;
7529;SDS011;3806;52.270;10.544;2022-11-15T06:36:35;8.43;;;5.25;;
7529;SDS011;3806;52.270;10.544;2022-11-15T06:39:02;9.20;;;5.65;;
7529;SDS011;3806;52.270;10.544;2022-11-15T06:41:28;8.40;;;4.88;;
7529;SDS011;3806;52.270;10.544;2022-11-15T06:43:54;9.95;;;6.13;;
7529;SDS011;3806;52.270;10.544;2022-11-15T06:46:20;10.52;;;5.15;;
7529;SDS011;3806;52.270;10.544;2022-11-15T06:48:45;11.82;;;5.53;;
7529;SDS011;3806;52.270;10.544;2022-11-15T06:51:11;14.43;;;6.07;;
7529;SDS011;3806;52.270;10.544;2022-11-15T06:53:36;7.60;;;4.43;;
7529;SDS011;3806;52.270;10.544;2022-11-15T06:56:03;10.25;;;5.65;;
7529;SDS011;3806;52.270;10.544;2022-11-15T06:58:30;8.98;;;5.20;;
7529;SDS011;3806;52.270;10.544;2022-11-15T07:01:00;9.43;;;5.05;;
7529;SDS011;3806;52.270;10.544;2022-11-15T07:03:31;10.43;;;5.75;;
7529;SDS011;3806;52.270;10.544;2022-11-15T07:05:57;10.15;;;6.20;;
7529;SDS011;3806;52.270;10.544;2022-11-15T07:08:23;10.10;;;6.28;;
7529;SDS011;3806;52.270;10.544;2022-11-15T07:10:51;10.63;;;5.93;;
7529;SDS011;3806;52.270;10.544;2022-11-15T07:13:17;14.57;;;6.05;;
7529;SDS011;3806;52.270;10.544;2022-11-15T07:15:42;10.18;;;6.03;;
7529;SDS011;3806;52.270;10.544;2022-11-15T07:18:08;11.48;;;5.70;;
7529;SDS011;3806;52.270;10.544;2022-11-15T07:20:34;10.70;;;5.88;;
7529;SDS011;3806;52.270;10.544;2022-11-15T07:23:03;10.10;;;5.95;;
7529;SDS011;3806;52.270;10.544;2022-11-15T07:25:30;11.07;;;5.25;;
7529;SDS011;3806;52.270;10.544;2022-11-15T07:27:56;10.18;;;5.10;;
7529;SDS011;3806;52.270;10.544;2022-11-15T07:30:22;8.77;;;5.30;;
7529;SDS011;3806;52.270;10.544;2022-11-15T07:32:52;9.27;;;5.60;;
7529;SDS011;3806;52.270;10.544;2022-11-15T07:35:19;8.73;;;5.13;;
7529;SDS011;3806;52.270;10.544;2022-11-15T07:37:52;11.38;;;6.15;;
7529;SDS011;3806;52.270;10.544;2022-11-15T07:40:18;10.50;;;6.07;;
7529;SDS011;3806;52.270;10.544;2022-11-15T07:42:44;16.40;;;6.50;;
7529;SDS011;3806;52.270;10.544;2022-11-15T07:45:19;14.85;;;6.03;;
7529;SDS011;3806;52.270;10.544;2022-11-15T07:47:46;13.60;;;6.00;;
7529;SDS011;3806;52.270;10.544;2022-11-15T07:50:12;15.18;;;5.82;;
7529;SDS011;3806;52.270;10.544;2022-11-15T07:52:38;10.02;;;5.65;;
7529;SDS011;3806;52.270;10.544;2022-11-15T07:55:03;9.05;;;5.05;;
7529;SDS011;3806;52.270;10.544;2022-11-15T07:57:29;9.32;;;4.47;;
7529;SDS011;3806;52.270;10.544;2022-11-15T07:59:55;8.95;;;5.22;;
7529;SDS011;3806;52.270;10.544;2022-11-15T08:02:21;6.78;;;4.18;;
7529;SDS011;3806;52.270;10.544;2022-11-15T08:04:46;8.32;;;4.40;;
7529;SDS011;3806;52.270;10.544;2022-11-15T08:07:12;5.35;;;3.80;;
7529;SDS011;3806;52.270;10.544;2022-11-15T08:09:37;5.50;;;3.40;;
7529;SDS011;3806;52.270;10.544;2022-11-15T08:12:03;6.47;;;2.97;;
7529;SDS011;3806;52.270;10.544;2022-11-15T08:14:29;6.00;;;3.47;;
7529;SDS011;3806;52.270;10.544;2022-11-15T08:16:55;5.53;;;2.92;;
7529;SDS011;3806;52.270;10.544;2022-11-15T08:19:20;4.88;;;3.60;;
7529;SDS011;3806;52.270;10.544;2022-11-15T08:21:46;5.53;;;3.05;;
7529;SDS011;3806;52.270;10.544;2022-11-15T08:24:12;5.15;;;3.78;;
7529;SDS011;3806;52.270;10.544;2022-11-15T08:26:38;7.45;;;3.80;;
7529;SDS011;3806;52.270;10.544;2022-11-15T08:29:04;7.78;;;3.05;;
7529;SDS011;3806;52.270;10.544;2022-11-15T08:31:30;6.82;;;3.22;;
7529;SDS011;3806;52.270;10.544;2022-11-15T08:33:56;6.43;;;3.28;;
7529;SDS011;3806;52.270;10.544;2022-11-15T08:36:21;5.32;;;2.88;;
7529;SDS011;3806;52.270;10.544;2022-11-15T08:38:47;5.55;;;3.83;;
7529;SDS011;3806;52.270;10.544;2022-11-15T08:41:13;5.38;;;3.03;;
7529;SDS011;3806;52.270;10.544;2022-11-15T08:43:52;4.80;;;3.38;;
7529;SDS011;3806;52.270;10.544;2022-11-15T08:46:18;4.45;;;2.85;;
7529;SDS011;3806;52.270;10.544;2022-11-15T08:48:44;4.93;;;3.35;;
7529;SDS011;3806;52.270;10.544;2022-11-15T08:51:09;5.85;;;3.33;;
7529;SDS011;3806;52.270;10.544;2022-11-15T08:53:35;4.65;;;2.70;;
7529;SDS011;3806;52.270;10.544;2022-11-15T08:56:01;6.38;;;2.90;;
7529;SDS011;3806;52.270;10.544;2022-11-15T08:58:27;5.40;;;3.08;;
7529;SDS011;3806;52.270;10.544;2022-11-15T09:00:53;5.32;;;3.08;;
7529;SDS011;3806;52.270;10.544;2022-11-15T09:03:18;3.67;;;2.92;;
7529;SDS011;3806;52.270;10.544;2022-11-15T09:05:44;5.32;;;2.72;;
7529;SDS011;3806;52.270;10.544;2022-11-15T09:08:09;6.85;;;3.22;;
7529;SDS011;3806;52.270;10.544;2022-11-15T09:10:36;5.90;;;3.15;;
7529;SDS011;3806;52.270;10.544;2022-11-15T09:13:01;10.80;;;3.85;;
7529;SDS011;3806;52.270;10.544;2022-11-15T09:15:27;6.75;;;3.50;;
7529;SDS011;3806;52.270;10.544;2022-11-15T09:17:53;5.55;;;3.60;;
7529;SDS011;3806;52.270;10.544;2022-11-15T09:20:18;7.35;;;3.88;;
7529;SDS011;3806;52.270;10.544;2022-11-15T09:22:44;6.40;;;3.45;;
7529;SDS011;3806;52.270;10.544;2022-11-15T09:25:09;6.43;;;3.10;;
7529;SDS011;3806;52.270;10.544;2022-11-15T09:27:35;6.28;;;4.15;;
7529;SDS011;3806;52.270;10.544;2022-11-15T09:30:00;6.80;;;3.50;;
7529;SDS011;3806;52.270;10.544;2022-11-15T09:32:29;7.90;;;3.15;;
7529;SDS011;3806;52.270;10.544;2022-11-15T09:34:55;4.60;;;3.03;;
7529;SDS011;3806;52.270;10.544;2022-11-15T09:37:21;5.10;;;3.70;;
7529;SDS011;3806;52.270;10.544;2022-11-15T09:39:46;5.90;;;3.40;;
7529;SDS011;3806;52.270;10.544;2022-11-15T09:42:20;6.25;;;3.40;;
7529;SDS011;3806;52.270;10.544;2022-11-15T09:47:38;5.20;;;3.53;;
7529;SDS011;3806;52.270;10.544;2022-11-15T09:50:15;5.43;;;3.20;;
7529;SDS011;3806;52.270;10.544;2022-11-15T09:52:45;5.88;;;3.33;;
7529;SDS011;3806;52.270;10.544;2022-11-15T09:55:14;4.20;;;3.13;;
7529;SDS011;3806;52.270;10.544;2022-11-15T10:00:51;5.40;;;3.38;;
7529;SDS011;3806;52.270;10.544;2022-11-15T10:03:26;4.63;;;3.00;;
7529;SDS011;3806;52.270;10.544;2022-11-15T10:05:56;3.50;;;2.70;;
7529;SDS011;3806;52.270;10.544;2022-11-15T10:08:31;5.65;;;3.85;;
7529;SDS011;3806;52.270;10.544;2022-11-15T10:11:32;5.53;;;3.15;;
7529;SDS011;3806;52.270;10.544;2022-11-15T10:17:00;6.78;;;3.42;;
7529;SDS011;3806;52.270;10.544;2022-11-15T10:22:24;4.10;;;2.90;;
7529;SDS011;3806;52.270;10.544;2022-11-15T10:24:52;6.50;;;2.72;;
7529;SDS011;3806;52.270;10.544;2022-11-15T10:27:37;5.57;;;3.40;;
7529;SDS011;3806;52.270;10.544;2022-11-15T10:30:14;4.22;;;2.92;;
7529;SDS011;3806;52.270;10.544;2022-11-15T10:32:42;5.90;;;3.20;;
7529;SDS011;3806;52.270;10.544;2022-11-15T10:37:51;4.22;;;2.90;;
7529;SDS011;3806;52.270;10.544;2022-11-15T10:40:20;6.85;;;3.00;;
7529;SDS011;3806;52.270;10.544;2022-11-15T10:42:48;4.22;;;3.03;;
7529;SDS011;3806;52.270;10.544;2022-11-15T10:45:29;5.32;;;3.00;;
7529;SDS011;3806;52.270;10.544;2022-11-15T10:50:37;6.13;;;2.90;;
7529;SDS011;3806;52.270;10.544;2022-11-15T10:53:04;7.15;;;2.55;;
7529;SDS011;3806;52.270;10.544;2022-11-15T10:55:37;5.03;;;2.88;;
7529;SDS011;3806;52.270;10.544;2022-11-15T10:58:19;4.53;;;2.63;;
7529;SDS011;3806;52.270;10.544;2022-11-15T11:00:52;4.32;;;2.50;;
7529;SDS011;3806;52.270;10.544;2022-11-15T11:03:28;6.13;;;2.47;;
7529;SDS011;3806;52.270;10.544;2022-11-15T11:06:08;4.45;;;2.50;;
7529;SDS011;3806;52.270;10.544;2022-11-15T11:09:00;3.72;;;2.35;;
7529;SDS011;3806;52.270;10.544;2022-11-15T11:11:46;4.30;;;2.60;;
7529;SDS011;3806;52.270;10.544;2022-11-15T11:16:49;2.92;;;2.10;;
7529;SDS011;3806;52.270;10.544;2022-11-15T11:25:36;3.72;;;2.30;;
7529;SDS011;3806;52.270;10.544;2022-11-15T11:31:35;4.22;;;2.35;;
7529;SDS011;3806;52.270;10.544;2022-11-15T11:34:19;5.47;;;2.65;;
7529;SDS011;3806;52.270;10.544;2022-11-15T11:36:54;4.80;;;2.70;;
7529;SDS011;3806;52.270;10.544;2022-11-15T11:45:10;3.63;;;2.35;;
7529;SDS011;3806;52.270;10.544;2022-11-15T11:50:45;4.75;;;2.92;;
7529;SDS011;3806;52.270;10.544;2022-11-15T11:53:22;5.70;;;3.20;;
7529;SDS011;3806;52.270;10.544;2022-11-15T11:56:04;4.82;;;2.55;;
7529;SDS011;3806;52.270;10.544;2022-11-15T11:58:47;4.80;;;2.55;;
7529;SDS011;3806;52.270;10.544;2022-11-15T12:01:35;5.32;;;2.60;;
7529;SDS011;3806;52.270;10.544;2022-11-15T12:04:12;4.10;;;2.55;;
7529;SDS011;3806;52.270;10.544;2022-11-15T12:06:47;4.90;;;3.30;;
7529;SDS011;3806;52.270;10.544;2022-11-15T12:15:02;4.22;;;2.72;;
7529;SDS011;3806;52.270;10.544;2022-11-15T12:17:38;6.28;;;3.17;;
7529;SDS011;3806;52.270;10.544;2022-11-15T12:20:19;6.63;;;2.88;;
7529;SDS011;3806;52.270;10.544;2022-11-15T12:23:03;7.07;;;3.10;;
7529;SDS011;3806;52.270;10.544;2022-11-15T12:26:08;4.90;;;2.78;;
7529;SDS011;3806;52.270;10.544;2022-11-15T12:28:47;10.63;;;2.90;;
7529;SDS011;3806;52.270;10.544;2022-11-15T12:31:23;8.38;;;3.05;;
7529;SDS011;3806;52.270;10.544;2022-11-15T12:33:56;4.55;;;3.08;;
7529;SDS011;3806;52.270;10.544;2022-11-15T12:39:01;6.65;;;2.70;;
7529;SDS011;3806;52.270;10.544;2022-11-15T12:41:30;4.35;;;2.78;;
7529;SDS011;3806;52.270;10.544;2022-11-15T12:44:03;6.22;;;2.95;;
7529;SDS011;3806;52.270;10.544;2022-11-15T12:49:10;5.18;;;2.95;;
7529;SDS011;3806;52.270;10.544;2022-11-15T13:04:46;3.78;;;2.53;;
7529;SDS011;3806;52.270;10.544;2022-11-15T13:09:59;6.50;;;2.75;;
7529;SDS011;3806;52.270;10.544;2022-11-15T13:27:58;4.93;;;2.50;;
7529;SDS011;3806;52.270;10.544;2022-11-15T13:30:26;4.10;;;2.60;;
7529;SDS011;3806;52.270;10.544;2022-11-15T13:32:54;6.32;;;2.65;;
7529;SDS011;3806;52.270;10.544;2022-11-15T13:35:24;5.53;;;2.45;;
7529;SDS011;3806;52.270;10.544;2022-11-15T13:37:51;5.00;;;3.10;;
7529;SDS011;3806;52.270;10.544;2022-11-15T13:40:23;5.47;;;2.40;;
7529;SDS011;3806;52.270;10.544;2022-11-15T13:42:55;6.65;;;2.92;;
7529;SDS011;3806;52.270;10.544;2022-11-15T13:45:21;4.90;;;2.70;;
7529;SDS011;3806;52.270;10.544;2022-11-15T13:47:51;5.45;;;2.78;;
7529;SDS011;3806;52.270;10.544;2022-11-15T13:50:21;4.45;;;2.50;;
7529;SDS011;3806;52.270;10.544;2022-11-15T13:52:50;4.32;;;3.05;;
7529;SDS011;3806;52.270;10.544;2022-11-15T13:55:21;5.43;;;2.30;;
7529;SDS011;3806;52.270;10.544;2022-11-15T13:57:49;3.15;;;2.55;;
7529;SDS011;3806;52.270;10.544;2022-11-15T14:00:38;6.90;;;3.03;;
7529;SDS011;3806;52.270;10.544;2022-11-15T14:03:15;4.03;;;2.55;;
7529;SDS011;3806;52.270;10.544;2022-11-15T14:06:07;4.82;;;2.13;;
7529;SDS011;3806;52.270;10.544;2022-11-15T14:14:01;4.47;;;2.65;;
7529;SDS011;3806;52.270;10.544;2022-11-15T14:19:04;5.15;;;2.50;;
7529;SDS011;3806;52.270;10.544;2022-11-15T14:21:31;4.10;;;2.83;;
7529;SDS011;3806;52.270;10.544;2022-11-15T14:24:16;8.20;;;3.22;;
7529;SDS011;3806;52.270;10.544;2022-11-15T14:26:43;6.53;;;2.80;;
7529;SDS011;3806;52.270;10.544;2022-11-15T14:29:28;3.20;;;2.17;;
7529;SDS011;3806;52.270;10.544;2022-11-15T14:32:05;4.63;;;2.50;;
7529;SDS011;3806;52.270;10.544;2022-11-15T14:34:38;3.45;;;2.40;;
7529;SDS011;3806;52.270;10.544;2022-11-15T14:37:04;4.95;;;2.80;;
7529;SDS011;3806;52.270;10.544;2022-11-15T14:39:30;5.95;;;3.00;;
7529;SDS011;3806;52.270;10.544;2022-11-15T14:41:55;6.10;;;2.83;;
7529;SDS011;3806;52.270;10.544;2022-11-15T14:44:21;6.18;;;3.33;;
7529;SDS011;3806;52.270;10.544;2022-11-15T14:46:47;6.95;;;2.65;;
7529;SDS011;3806;52.270;10.544;2022-11-15T14:49:13;4.80;;;2.83;;
7529;SDS011;3806;52.270;10.544;2022-11-15T14:51:40;5.57;;;2.75;;
7529;SDS011;3806;52.270;10.544;2022-11-15T14:54:08;5.28;;;2.78;;
7529;SDS011;3806;52.270;10.544;2022-11-15T14:56:35;5.07;;;3.30;;
7529;SDS011;3806;52.270;10.544;2022-11-15T14:59:01;4.38;;;3.38;;
7529;SDS011;3806;52.270;10.544;2022-11-15T15:01:26;5.38;;;3.72;;
7529;SDS011;3806;52.270;10.544;2022-11-15T15:03:52;5.32;;;3.35;;
7529;SDS011;3806;52.270;10.544;2022-11-15T15:06:21;6.20;;;3.13;;
7529;SDS011;3806;52.270;10.544;2022-11-15T15:08:47;4.18;;;3.10;;
7529;SDS011;3806;52.270;10.544;2022-11-15T15:11:25;7.57;;;3.17;;
7529;SDS011;3806;52.270;10.544;2022-11-15T15:13:52;4.22;;;3.30;;
7529;SDS011;3806;52.270;10.544;2022-11-15T15:16:21;6.18;;;3.45;;
7529;SDS011;3806;52.270;10.544;2022-11-15T15:18:48;5.32;;;3.05;;
7529;SDS011;3806;52.270;10.544;2022-11-15T15:21:20;7.10;;;3.55;;
7529;SDS011;3806;52.270;10.544;2022-11-15T15:23:49;5.32;;;3.05;;
7529;SDS011;3806;52.270;10.544;2022-11-15T15:26:14;4.82;;;2.83;;
7529;SDS011;3806;52.270;10.544;2022-11-15T15:28:40;7.78;;;3.83;;
7529;SDS011;3806;52.270;10.544;2022-11-15T15:31:06;6.80;;;3.10;;
7529;SDS011;3806;52.270;10.544;2022-11-15T15:33:32;4.55;;;2.63;;
7529;SDS011;3806;52.270;10.544;2022-11-15T15:35:58;7.22;;;3.53;;
7529;SDS011;3806;52.270;10.544;2022-11-15T15:38:24;5.90;;;3.13;;
7529;SDS011;3806;52.270;10.544;2022-11-15T15:40:49;5.00;;;3.28;;
7529;SDS011;3806;52.270;10.544;2022-11-15T15:43:15;8.55;;;3.42;;
7529;SDS011;3806;52.270;10.544;2022-11-15T15:45:41;5.57;;;3.22;;
7529;SDS011;3806;52.270;10.544;2022-11-15T15:48:11;6.00;;;3.08;;
7529;SDS011;3806;52.270;10.544;2022-11-15T15:50:38;5.68;;;3.20;;
7529;SDS011;3806;52.270;10.544;2022-11-15T15:53:04;5.90;;;3.65;;
7529;SDS011;3806;52.270;10.544;2022-11-15T15:55:30;4.28;;;2.45;;
7529;SDS011;3806;52.270;10.544;2022-11-15T15:57:56;11.40;;;3.40;;
7529;SDS011;3806;52.270;10.544;2022-11-15T16:00:22;5.53;;;3.72;;
7529;SDS011;3806;52.270;10.544;2022-11-15T16:02:49;6.35;;;3.58;;
7529;SDS011;3806;52.270;10.544;2022-11-15T16:05:15;4.78;;;3.25;;
7529;SDS011;3806;52.270;10.544;2022-11-15T16:07:42;4.63;;;3.08;;
7529;SDS011;3806;52.270;10.544;2022-11-15T16:10:19;5.45;;;3.35;;
7529;SDS011;3806;52.270;10.544;2022-11-15T16:12:49;7.35;;;3.38;;
7529;SDS011;3806;52.270;10.544;2022-11-15T16:15:15;6.60;;;4.45;;
7529;SDS011;3806;52.270;10.544;2022-11-15T16:17:44;6.38;;;3.20;;
7529;SDS011;3806;52.270;10.544;2022-11-15T16:20:41;6.45;;;3.40;;
7529;SDS011;3806;52.270;10.544;2022-11-15T16:23:16;6.05;;;3.58;;
7529;SDS011;3806;52.270;10.544;2022-11-15T16:25:46;10.48;;;3.95;;
7529;SDS011;3806;52.270;10.544;2022-11-15T16:28:23;7.03;;;3.35;;
7529;SDS011;3806;52.270;10.544;2022-11-15T16:30:49;4.95;;;3.42;;
7529;SDS011;3806;52.270;10.544;2022-11-15T16:33:25;6.95;;;3.80;;
7529;SDS011;3806;52.270;10.544;2022-11-15T16:35:51;7.07;;;4.03;;
7529;SDS011;3806;52.270;10.544;2022-11-15T16:38:17;6.13;;;3.22;;
7529;SDS011;3806;52.270;10.544;2022-11-15T16:40:42;7.75;;;3.63;;
7529;SDS011;3806;52.270;10.544;2022-11-15T16:43:08;5.88;;;3.45;;
7529;SDS011;3806;52.270;10.544;2022-11-15T16:45:34;7.25;;;3.47;;
7529;SDS011;3806;52.270;10.544;2022-11-15T16:48:00;5.50;;;3.78;;
7529;SDS011;3806;52.270;10.544;2022-11-15T16:50:27;6.72;;;3.88;;
7529;SDS011;3806;52.270;10.544;2022-11-15T16:52:56;6.15;;;3.22;;
7529;SDS011;3806;52.270;10.544;2022-11-15T16:55:23;7.68;;;4.00;;
7529;SDS011;3806;52.270;10.544;2022-11-15T16:57:50;6.75;;;3.00;;
7529;SDS011;3806;52.270;10.544;2022-11-15T17:00:17;4.75;;;3.20;;
7529;SDS011;3806;52.270;10.544;2022-11-15T17:02:44;5.38;;;3.03;;
7529;SDS011;3806;52.270;10.544;2022-11-15T17:05:11;8.10;;;3.13;;
7529;SDS011;3806;52.270;10.544;2022-11-15T17:07:38;6.72;;;3.50;;
7529;SDS011;3806;52.270;10.544;2022-11-15T17:10:04;6.18;;;3.40;;
7529;SDS011;3806;52.270;10.544;2022-11-15T17:12:31;5.57;;;3.33;;